Rapid City, SD (57702)

2:50 AM MST on February 10, 2016 (GMT -0700)
Marco Heights | | Change Station
CLOSE
Current Station
Personal Weather Station
Location: Rapid City, SD
Elevation: 3491 ft
Nearby Weather Stations

Elev 3491 ft 44.09 °N, 103.30 °W | Updated 12 minutes ago

Clear
Clear
40.8 °F
Feels Like 38 °F
N
4.7
Wind Variable Wind from SW

Today
High -- | Low -- °F
--% Chance of Precip.
Yesterday
High -- | Low -- °F
Precip. -- in
Pressure 29.97 in
Visibility 10.0 miles
Clouds Clear
Windchill 38 °F
Dew Point 26 °F
Humidity 54%
Rainfall 0.00 in
Snow Depth Not available.
7:00 AM 5:15 PM
Waxing Crescent, 4% visible
METAR KRAP 100852Z AUTO 00000KT 10SM CLR 00/M04 A2993 RMK AO2 SLP149 T00001039 58021
Pressure 29.97 in
Visibility 10.0 miles
Clouds Clear
Windchill 38 °F
Dew Point 26 °F
Humidity 54%
Rainfall 0.00 in
Snow Depth Not available.
7:00 AM 5:15 PM
Waxing Crescent, 4% visible
METAR KRAP 100852Z AUTO 00000KT 10SM CLR 00/M04 A2993 RMK AO2 SLP149 T00001039 58021

10-Day Weather Forecast

Almanac

Astronomy

Feb. 10, 2016 Rise Set
Actual Time
Civil Twilight
Nautical Twilight
Astronomical Twilight
Moon
Length of Visible Light
Length of Day
Tomorrow will be .
, % of the Moon is Illuminated

Today's Extremes

State Highs State Lows

Community

WunderPhotos

Upload Photos

1,891,826 photos uploaded!

WunderBlog® & News

Nearby

Air Quality

  Air Quality AQ Index Pollutant
Not available.

Snow Depth

Station Depth Elevation

Earthquake Activity

City Distance Mag. Time & Date
Minimum magnitude displayed is 2.5.

Coastal Water Temperatures

Place Temperature

Stations

Nearby Weather Stations

Station Location Temp. Windchill Dew Point Humidity Wind Precip. Elev Updated Type
                   

Watches & Warnings

There are currently no watches in effect.